San Diego, California
Traffic Map
Current Weather Conditions
San Diego, California
Broken Clouds
Broken Clouds
60°
Feels Like: 60°
Wind Chill: 60° Ceiling: 2000
Heat Index: 60° Visibility: 10mi
Dew Point: 51° Wind: 0mph
Humidity: 72% Direction: ° ()
Pressure: 30.01in Gusts: 0mph
Raw Report DataKSAN 020951Z 00000KT 10SM BKN020 16/11 A3001 RMK AO2 SLP163 T01560106 $
Traffic Incident Summary
Active as of:
Severity:
Category:
InformationThere was an issue retrieving the traffic information for this location. Please try a different location or try again shortly.
Advertisements
Track Severe Weather on mobile